Time;durP1;ratioP1;P1;durP2;ratioP2;P2;SDS_P1;SDS_P2;PMS_P1;PMS_P2;Temp;Humidity;BMP_temperature;BMP_pressure;BME280_temperature;BME280_humidity;BME280_pressure;Samples;Min_cycle;Max_cycle;Signal;HPM_P1;HPM_P2
2022/04/18 00:01:50;;;;;;;5.00;2.30;;;7.80;63.70;;;;;;5076025;28;20579;-71
2022/04/18 00:04:16;;;;;;;4.13;2.20;;;7.80;63.60;;;;;;5074836;28;20067;-71
2022/04/18 00:06:41;;;;;;;3.45;1.90;;;7.90;63.50;;;;;;5073452;28;20048;-71
2022/04/18 00:09:08;;;;;;;3.40;1.98;;;7.90;63.60;;;;;;5075469;28;20100;-71
2022/04/18 00:11:34;;;;;;;3.72;1.50;;;7.90;63.80;;;;;;5077059;28;20055;-71
2022/04/18 00:14:00;;;;;;;3.22;1.73;;;7.90;64.30;;;;;;5069493;28;20047;-71
2022/04/18 00:16:26;;;;;;;3.65;1.98;;;7.90;64.40;;;;;;5071748;28;20047;-71
2022/04/18 00:18:52;;;;;;;6.72;1.73;;;7.80;64.10;;;;;;5074051;28;20097;-71
2022/04/18 00:21:19;;;;;;;2.78;1.55;;;7.90;65.60;;;;;;5075263;28;20027;-71
2022/04/18 00:23:45;;;;;;;2.78;1.50;;;7.90;63.30;;;;;;5073386;28;20039;-71
2022/04/18 00:26:11;;;;;;;2.10;1.65;;;7.90;63.90;;;;;;5075664;28;20024;-71
2022/04/18 00:28:36;;;;;;;3.55;2.00;;;7.90;64.00;;;;;;5079148;28;20062;-71
2022/04/18 00:31:03;;;;;;;2.53;1.67;;;7.90;64.00;;;;;;5068918;28;20036;-71
2022/04/18 00:33:28;;;;;;;2.78;1.52;;;7.90;65.60;;;;;;5075234;28;20036;-71
2022/04/18 00:35:55;;;;;;;1.95;1.30;;;7.90;68.50;;;;;;5072736;28;20040;-71
2022/04/18 00:38:21;;;;;;;1.80;1.23;;;7.90;67.40;;;;;;5072797;28;20152;-71
2022/04/18 00:40:47;;;;;;;3.15;1.40;;;7.90;66.80;;;;;;5074016;28;20131;-71
2022/04/18 00:43:13;;;;;;;4.00;1.70;;;7.90;66.10;;;;;;5078842;28;20775;-71
2022/04/18 00:45:38;;;;;;;1.30;1.10;;;7.90;66.80;;;;;;5071312;28;20101;-71
2022/04/18 00:48:04;;;;;;;3.28;1.85;;;7.90;67.50;;;;;;5073998;28;20115;-71
2022/04/18 00:50:32;;;;;;;2.35;1.75;;;7.90;68.70;;;;;;5071177;28;20079;-71
2022/04/18 00:52:58;;;;;;;3.88;2.08;;;7.90;66.90;;;;;;5066835;28;20518;-71
2022/04/18 00:55:26;;;;;;;3.83;2.30;;;7.90;65.90;;;;;;5071933;28;20345;-71
2022/04/18 00:57:54;;;;;;;5.22;2.30;;;7.90;67.70;;;;;;5078216;28;20052;-71
2022/04/18 01:00:20;;;;;;;4.22;2.13;;;7.90;67.90;;;;;;5073482;28;20089;-71
2022/04/18 01:02:46;;;;;;;4.05;2.15;;;7.90;69.40;;;;;;5075094;28;20694;-71
2022/04/18 01:05:12;;;;;;;5.97;2.65;;;7.80;68.40;;;;;;5068694;28;20148;-71
2022/04/18 01:07:39;;;;;;;5.10;2.53;;;7.80;68.90;;;;;;5074403;28;20040;-71
2022/04/18 01:10:06;;;;;;;5.00;3.10;;;7.80;74.20;;;;;;5079821;28;20047;-71
2022/04/18 01:12:32;;;;;;;6.55;3.78;;;7.80;71.20;;;;;;5073437;28;20044;-71
2022/04/18 01:14:58;;;;;;;6.20;3.20;;;7.70;69.30;;;;;;5074737;28;20020;-71
2022/04/18 01:17:24;;;;;;;5.45;2.67;;;7.70;68.60;;;;;;5075557;28;20036;-71
2022/04/18 01:19:50;;;;;;;3.78;2.28;;;7.80;70.10;;;;;;5078726;28;20349;-71
2022/04/18 01:22:18;;;;;;;3.60;2.00;;;7.80;70.20;;;;;;5072521;28;20060;-71
2022/04/18 01:30:14;;;;;;;2.55;1.85;;;7.80;68.20;;;;;;5078187;28;20723;-72
2022/04/18 01:32:40;;;;;;;3.25;2.25;;;7.80;68.60;;;;;;5076576;28;20040;-71
2022/04/18 01:35:06;;;;;;;3.95;1.88;;;7.90;68.70;;;;;;5080523;28;20085;-71
2022/04/18 01:37:32;;;;;;;3.53;1.90;;;7.90;68.20;;;;;;5080703;28;20040;-71
2022/04/18 01:39:57;;;;;;;3.00;1.83;;;7.90;69.20;;;;;;5080643;28;20044;-71
2022/04/18 01:42:23;;;;;;;2.13;1.83;;;7.80;68.60;;;;;;5077774;28;20052;-72
2022/04/18 01:44:49;;;;;;;2.10;1.35;;;7.80;73.80;;;;;;5080653;28;20129;-71
2022/04/18 01:47:15;;;;;;;2.05;1.55;;;7.70;76.90;;;;;;5077440;28;20092;-71
2022/04/18 01:49:40;;;;;;;2.15;1.50;;;7.60;78.50;;;;;;5078226;28;20048;-71
2022/04/18 01:52:06;;;;;;;2.65;1.75;;;7.50;77.70;;;;;;5077654;28;20067;-71
2022/04/18 01:54:32;;;;;;;3.20;2.00;;;7.50;76.20;;;;;;5076080;28;20052;-71
2022/04/18 01:56:57;;;;;;;2.47;1.55;;;7.50;77.70;;;;;;5078268;28;20044;-71
2022/04/18 01:59:23;;;;;;;2.70;1.67;;;7.50;78.40;;;;;;5070237;28;20524;-71
2022/04/18 02:01:49;;;;;;;3.42;1.98;;;7.50;78.40;;;;;;5074416;28;20036;-71
2022/04/18 02:04:16;;;;;;;3.38;1.52;;;7.50;77.00;;;;;;5063542;28;20529;-71
2022/04/18 02:06:41;;;;;;;3.80;1.73;;;7.50;76.00;;;;;;5072496;28;20135;-71
2022/04/18 02:09:07;;;;;;;2.13;1.73;;;7.50;75.70;;;;;;5075693;28;20851;-71
2022/04/18 02:11:33;;;;;;;2.85;1.63;;;7.60;75.50;;;;;;5070957;28;20052;-71
2022/04/18 02:13:58;;;;;;;4.38;1.73;;;7.70;73.80;;;;;;5070391;28;20052;-71
2022/04/18 02:16:25;;;;;;;2.80;1.70;;;7.70;73.30;;;;;;5074749;28;20072;-71
2022/04/18 02:18:50;;;;;;;3.42;2.53;;;7.70;72.40;;;;;;5072406;28;20118;-71
2022/04/18 02:21:17;;;;;;;4.35;2.00;;;7.70;74.10;;;;;;5076577;28;20461;-72
2022/04/18 02:23:43;;;;;;;2.85;2.10;;;7.70;75.00;;;;;;5073966;28;20036;-71
2022/04/18 02:26:09;;;;;;;3.75;2.30;;;7.70;76.10;;;;;;5074565;28;21010;-71
2022/04/18 02:28:36;;;;;;;2.63;2.10;;;7.60;74.70;;;;;;5071545;28;20041;-71
2022/04/18 02:31:02;;;;;;;2.80;1.30;;;7.50;75.60;;;;;;5074167;28;20024;-71
2022/04/18 02:33:28;;;;;;;1.80;1.30;;;7.50;78.10;;;;;;5070998;28;20500;-71
2022/04/18 02:35:54;;;;;;;1.83;1.38;;;7.40;78.70;;;;;;5071738;28;20062;-71
2022/04/18 02:38:20;;;;;;;1.50;1.13;;;7.40;78.00;;;;;;5074391;28;20474;-71
2022/04/18 02:40:46;;;;;;;2.35;1.33;;;7.30;80.00;;;;;;5072926;28;20047;-71
2022/04/18 02:43:14;;;;;;;2.30;1.40;;;7.40;79.80;;;;;;5072450;28;20040;-71
2022/04/18 02:45:40;;;;;;;1.98;1.45;;;7.40;79.50;;;;;;5075634;28;20036;-72
2022/04/18 02:48:06;;;;;;;3.95;1.20;;;7.40;79.20;;;;;;5076293;28;20816;-72
2022/04/18 02:50:32;;;;;;;1.33;1.20;;;7.40;79.40;;;;;;5057460;28;20071;-71
2022/04/18 02:52:57;;;;;;;2.08;1.40;;;7.30;80.00;;;;;;5076773;28;20059;-71
2022/04/18 02:55:25;;;;;;;2.17;1.30;;;7.20;79.50;;;;;;5076599;28;20072;-71
2022/04/18 02:57:51;;;;;;;2.45;1.63;;;7.00;80.40;;;;;;5072279;28;20051;-71
2022/04/18 03:00:17;;;;;;;1.98;1.55;;;6.90;81.60;;;;;;5075342;28;20493;-71
2022/04/18 03:02:43;;;;;;;2.83;1.48;;;6.90;82.10;;;;;;5081325;28;20093;-71
2022/04/18 03:05:10;;;;;;;2.88;1.92;;;7.00;82.40;;;;;;5078408;28;20558;-71
2022/04/18 03:07:36;;;;;;;2.10;1.55;;;7.00;82.50;;;;;;5077078;28;20056;-71
2022/04/18 03:10:03;;;;;;;3.75;1.77;;;7.10;81.40;;;;;;5080652;28;20036;-71
2022/04/18 03:12:29;;;;;;;2.10;1.38;;;7.10;82.70;;;;;;5081253;28;20036;-71
2022/04/18 03:14:55;;;;;;;1.60;1.45;;;7.00;77.70;;;;;;5071262;28;20058;-71
2022/04/18 03:17:20;;;;;;;2.13;1.50;;;6.90;81.40;;;;;;5075657;28;20044;-71
2022/04/18 03:19:46;;;;;;;2.33;1.75;;;6.90;81.80;;;;;;5070974;28;20066;-70
2022/04/18 03:22:12;;;;;;;3.25;1.90;;;6.90;81.70;;;;;;5076680;28;20449;-71
2022/04/18 03:24:37;;;;;;;1.92;1.48;;;7.00;80.80;;;;;;5078726;28;20082;-71
2022/04/18 03:27:04;;;;;;;3.28;1.70;;;7.10;79.20;;;;;;5079889;28;20092;-71
2022/04/18 03:29:31;;;;;;;3.95;1.90;;;7.10;78.30;;;;;;5078981;28;20032;-71
2022/04/18 03:31:57;;;;;;;2.03;1.33;;;7.20;77.40;;;;;;5074516;28;20032;-71
2022/04/18 03:34:24;;;;;;;4.28;1.60;;;7.20;76.70;;;;;;5077054;28;20040;-71
2022/04/18 03:39:53;;;;;;;2.80;1.88;;;7.10;79.80;;;;;;5074401;28;20047;-71
2022/04/18 03:42:29;;;;;;;2.88;1.58;;;7.00;81.80;;;;;;5079384;28;20105;-71
2022/04/18 03:44:56;;;;;;;1.75;1.40;;;7.00;80.80;;;;;;5077503;28;20029;-71
2022/04/18 03:47:22;;;;;;;2.17;1.83;;;6.90;79.30;;;;;;5074336;28;20089;-71
2022/04/18 03:49:48;;;;;;;2.42;1.67;;;6.90;80.50;;;;;;5076879;28;20032;-71
2022/04/18 03:52:13;;;;;;;3.35;1.63;;;7.00;82.00;;;;;;5069193;28;20465;-72
2022/04/18 03:54:43;;;;;;;3.58;1.80;;;6.90;81.90;;;;;;5051749;28;20378;-71
2022/04/18 03:57:09;;;;;;;2.53;1.60;;;6.80;83.90;;;;;;5078502;28;20052;-71
2022/04/18 03:59:35;;;;;;;1.77;1.50;;;6.80;83.90;;;;;;5074653;28;20093;-71
2022/04/18 04:02:02;;;;;;;3.35;1.50;;;6.70;84.70;;;;;;5078342;28;20044;-71
2022/04/18 04:04:28;;;;;;;2.83;1.67;;;6.70;84.00;;;;;;5072099;28;20048;-71
2022/04/18 04:06:53;;;;;;;3.58;1.48;;;6.50;84.30;;;;;;5063279;28;20050;-71
2022/04/18 04:09:19;;;;;;;1.70;1.60;;;6.40;85.40;;;;;;5070902;28;20048;-71
2022/04/18 04:11:45;;;;;;;3.83;1.92;;;6.40;85.50;;;;;;5075408;28;20503;-71
2022/04/18 04:14:11;;;;;;;1.63;1.27;;;6.40;84.20;;;;;;5074482;28;20119;-71
2022/04/18 04:16:39;;;;;;;2.00;1.70;;;6.50;83.10;;;;;;5073851;28;20052;-71
2022/04/18 04:19:06;;;;;;;2.65;1.40;;;6.50;83.50;;;;;;5077865;28;20089;-72
2022/04/18 04:21:36;;;;;;;1.85;1.65;;;6.50;84.70;;;;;;5073689;28;20547;-71
2022/04/18 04:24:02;;;;;;;1.75;1.60;;;6.40;87.10;;;;;;5074828;28;20047;-71
2022/04/18 04:26:28;;;;;;;4.03;1.10;;;6.40;86.80;;;;;;5073101;28;20033;-71
2022/04/18 04:28:54;;;;;;;3.25;1.27;;;6.30;87.90;;;;;;5073947;28;20045;-71
2022/04/18 04:31:20;;;;;;;1.27;1.15;;;6.20;88.70;;;;;;5073565;28;20594;-71
2022/04/18 04:33:46;;;;;;;2.53;1.83;;;6.20;88.40;;;;;;5072373;28;20044;-71
2022/04/18 04:36:12;;;;;;;1.88;1.27;;;6.30;86.30;;;;;;5075294;28;20058;-71
2022/04/18 04:38:38;;;;;;;1.77;1.25;;;6.30;86.60;;;;;;5079978;28;20056;-71
2022/04/18 04:41:03;;;;;;;2.50;1.40;;;6.10;87.70;;;;;;5072054;28;20040;-71
2022/04/18 04:43:29;;;;;;;1.65;1.25;;;5.90;87.60;;;;;;5076643;28;20047;-71
2022/04/18 04:45:55;;;;;;;2.80;1.27;;;5.70;87.80;;;;;;5076041;28;20041;-70
2022/04/18 04:48:24;;;;;;;1.40;0.98;;;5.70;88.60;;;;;;5080117;28;20048;-72
2022/04/18 04:50:50;;;;;;;1.85;1.13;;;5.60;89.50;;;;;;5075386;28;20113;-71
2022/04/18 04:53:16;;;;;;;1.27;0.98;;;5.60;90.60;;;;;;5076443;28;20064;-71
2022/04/18 04:55:42;;;;;;;2.15;1.13;;;5.70;89.80;;;;;;5076352;28;20492;-71
2022/04/18 04:58:09;;;;;;;1.70;1.20;;;5.80;88.80;;;;;;5076994;28;20048;-72
2022/04/18 05:00:38;;;;;;;3.97;1.35;;;5.90;87.10;;;;;;5075803;28;20055;-71
2022/04/18 05:03:05;;;;;;;4.55;1.60;;;6.10;86.20;;;;;;5071379;28;20127;-71
2022/04/18 05:05:32;;;;;;;2.15;1.70;;;6.20;83.80;;;;;;5080504;28;20450;-71
2022/04/18 05:07:58;;;;;;;1.70;1.35;;;6.30;84.60;;;;;;5079265;28;20029;-70
2022/04/18 05:10:24;;;;;;;1.92;0.98;;;6.20;87.20;;;;;;5083924;28;20100;-70
2022/04/18 05:12:50;;;;;;;1.92;1.30;;;6.10;87.40;;;;;;5083377;28;20188;-70
2022/04/18 05:15:16;;;;;;;17.48;8.90;;;5.80;86.40;;;;;;5071505;28;20109;-69
2022/04/18 05:17:42;;;;;;;3.00;2.00;;;5.70;87.80;;;;;;5073524;28;20052;-70
2022/04/18 05:20:09;;;;;;;12.77;8.85;;;5.90;88.00;;;;;;5076589;28;20052;-70
2022/04/18 05:22:35;;;;;;;3.10;1.63;;;6.10;85.20;;;;;;5075270;28;20045;-70
2022/04/18 05:25:01;;;;;;;4.40;1.10;;;6.00;85.40;;;;;;5078535;28;22463;-70
2022/04/18 05:27:26;;;;;;;2.35;1.10;;;5.80;83.20;;;;;;5078141;28;20043;-70
2022/04/18 05:29:52;;;;;;;1.30;0.77;;;5.80;83.20;;;;;;5080330;28;20029;-70
2022/04/18 05:32:18;;;;;;;1.58;0.88;;;5.90;83.10;;;;;;5073944;28;20109;-70
2022/04/18 05:34:44;;;;;;;1.63;1.10;;;6.00;83.30;;;;;;5084200;28;20048;-70
2022/04/18 05:37:10;;;;;;;2.28;1.45;;;6.10;83.10;;;;;;5078856;28;20055;-70
2022/04/18 05:39:35;;;;;;;2.92;2.10;;;6.10;84.00;;;;;;5077673;28;20036;-70
2022/04/18 05:42:01;;;;;;;2.33;1.90;;;6.20;84.10;;;;;;5073162;28;20101;-67
2022/04/18 05:44:27;;;;;;;2.55;1.80;;;6.50;83.30;;;;;;5074161;28;20033;-68
2022/04/18 05:46:53;;;;;;;3.30;1.60;;;6.70;81.40;;;;;;5078567;28;20040;-68
2022/04/18 05:49:19;;;;;;;1.45;1.25;;;6.60;78.80;;;;;;5081005;28;20036;-68
2022/04/18 05:51:45;;;;;;;2.80;1.63;;;6.50;76.90;;;;;;5081945;28;20028;-68
2022/04/18 05:54:10;;;;;;;7.50;3.42;;;6.50;77.50;;;;;;5072917;28;20071;-68
2022/04/18 05:56:37;;;;;;;14.18;6.45;;;6.60;78.50;;;;;;5075460;28;20039;-68
2022/04/18 05:59:03;;;;;;;22.98;10.23;;;7.00;77.60;;;;;;5081452;28;20040;-68
2022/04/18 06:01:31;;;;;;;20.73;10.15;;;7.20;78.00;;;;;;5079651;28;20034;-68
2022/04/18 06:03:57;;;;;;;9.15;5.32;;;7.50;77.80;;;;;;5076615;28;20105;-68
2022/04/18 06:06:22;;;;;;;6.88;3.22;;;7.80;75.80;;;;;;5079641;28;20032;-68
2022/04/18 06:08:48;;;;;;;3.80;2.60;;;8.10;73.70;;;;;;5076359;28;20143;-68
2022/04/18 06:11:14;;;;;;;5.40;3.67;;;8.20;72.30;;;;;;5080388;28;20039;-68
2022/04/18 06:13:39;;;;;;;5.82;2.92;;;8.40;70.40;;;;;;5077005;28;20036;-68
2022/04/18 06:16:06;;;;;;;4.70;2.88;;;8.50;71.00;;;;;;5079042;28;20036;-68
2022/04/18 06:18:32;;;;;;;4.20;2.45;;;8.60;70.30;;;;;;5075451;28;20500;-68
2022/04/18 06:20:58;;;;;;;4.22;2.58;;;8.80;70.10;;;;;;5075006;28;20093;-68
2022/04/18 06:23:24;;;;;;;2.85;2.00;;;9.00;68.30;;;;;;5076153;28;20504;-68
2022/04/18 06:25:49;;;;;;;2.72;2.17;;;9.30;67.50;;;;;;5079468;28;20032;-68
2022/04/18 06:28:15;;;;;;;2.67;1.95;;;9.40;66.80;;;;;;5078257;28;20048;-68
2022/04/18 06:30:42;;;;;;;6.05;4.30;;;9.40;67.00;;;;;;5078642;28;20043;-68
2022/04/18 06:33:11;;;;;;;3.70;2.30;;;9.90;69.90;;;;;;5072063;28;20044;-67
2022/04/18 06:35:37;;;;;;;2.00;1.40;;;10.20;66.40;;;;;;5071388;28;20040;-71
2022/04/18 06:38:03;;;;;;;2.80;1.67;;;10.00;67.40;;;;;;5066564;28;20621;-70
2022/04/18 06:40:28;;;;;;;3.05;1.83;;;9.50;69.20;;;;;;5075118;28;20083;-72
2022/04/18 06:42:54;;;;;;;3.17;1.60;;;9.20;69.60;;;;;;5078797;28;20191;-73
2022/04/18 06:45:20;;;;;;;3.20;1.70;;;8.90;69.60;;;;;;5077056;28;20111;-74
2022/04/18 06:47:45;;;;;;;3.15;1.98;;;8.80;70.20;;;;;;5079607;28;20124;-73
2022/04/18 06:50:12;;;;;;;3.78;2.72;;;8.80;70.10;;;;;;5076624;28;20119;-73
2022/04/18 06:52:49;;;;;;;65.45;7.20;;;8.80;68.10;;;;;;5074159;28;20028;-71
2022/04/18 06:55:16;;;;;;;5.68;2.72;;;8.90;67.30;;;;;;5079987;28;20059;-71
2022/04/18 06:57:42;;;;;;;7.55;3.08;;;9.10;65.80;;;;;;5075533;28;20056;-70
2022/04/18 07:00:08;;;;;;;4.00;2.17;;;9.30;64.20;;;;;;5070781;28;20108;-71
2022/04/18 07:02:34;;;;;;;3.47;1.70;;;9.40;62.50;;;;;;5053229;28;20382;-71
2022/04/18 07:05:00;;;;;;;3.08;1.33;;;9.60;60.90;;;;;;5081705;28;20033;-70
2022/04/18 07:07:26;;;;;;;3.35;1.98;;;9.70;60.80;;;;;;5072842;28;20520;-72
2022/04/18 07:09:52;;;;;;;2.35;1.75;;;9.90;58.10;;;;;;5067623;28;20047;-72
2022/04/18 07:12:24;;;;;;;3.45;1.42;;;10.00;57.30;;;;;;5048686;28;20049;-71
2022/04/18 07:14:50;;;;;;;5.32;3.22;;;9.90;56.80;;;;;;5052417;28;20145;-72
2022/04/18 07:17:16;;;;;;;4.28;3.88;;;9.90;58.00;;;;;;5054421;28;20553;-70
2022/04/18 07:19:41;;;;;;;2.17;1.00;;;10.00;58.90;;;;;;5055392;28;20106;-71
2022/04/18 07:22:07;;;;;;;1.85;1.60;;;10.20;56.70;;;;;;5046888;28;20036;-71
2022/04/18 07:24:33;;;;;;;2.88;1.48;;;10.30;56.20;;;;;;5052443;28;20036;-71
2022/04/18 07:27:01;;;;;;;1.83;1.50;;;10.30;54.20;;;;;;5052419;28;20047;-71
2022/04/18 07:29:27;;;;;;;3.53;1.27;;;10.40;55.70;;;;;;5051165;28;20037;-71
2022/04/18 07:31:54;;;;;;;4.10;1.30;;;10.60;53.40;;;;;;5063401;28;20158;-77
2022/04/18 07:34:20;;;;;;;1.30;1.13;;;10.70;53.30;;;;;;5057731;28;20029;-79
2022/04/18 07:36:46;;;;;;;1.42;1.00;;;10.80;53.70;;;;;;5056459;28;20056;-78
2022/04/18 07:39:11;;;;;;;5.25;3.70;;;11.00;52.30;;;;;;5057276;28;20040;-78
2022/04/18 07:41:37;;;;;;;2.10;1.23;;;11.10;52.60;;;;;;5054518;28;20456;-79
2022/04/18 07:44:03;;;;;;;2.08;1.10;;;11.20;51.10;;;;;;5049258;28;20052;-74
2022/04/18 07:46:30;;;;;;;3.20;1.50;;;11.30;51.60;;;;;;5045793;28;20036;-75
2022/04/18 07:48:56;;;;;;;2.35;1.40;;;11.30;49.90;;;;;;5054172;28;20050;-76
2022/04/18 07:54:08;;;;;;;2.95;2.30;;;11.50;50.70;;;;;;5051349;28;20519;-74
2022/04/18 07:56:35;;;;;;;2.83;2.05;;;11.60;51.40;;;;;;5050091;28;20051;-74
2022/04/18 07:59:01;;;;;;;2.03;1.17;;;11.60;52.50;;;;;;5058481;28;21182;-74
2022/04/18 08:01:27;;;;;;;2.70;1.95;;;11.60;48.10;;;;;;5054697;28;20489;-75
2022/04/18 08:03:54;;;;;;;2.80;2.33;;;11.60;49.30;;;;;;5058267;28;20410;-73
2022/04/18 08:06:20;;;;;;;2.15;1.30;;;11.70;49.10;;;;;;5056806;28;20472;-74
2022/04/18 08:08:46;;;;;;;3.22;2.92;;;11.90;47.90;;;;;;5056200;28;20037;-77
2022/04/18 08:11:14;;;;;;;2.13;1.00;;;12.00;47.30;;;;;;5074476;28;20508;-78
2022/04/18 08:13:41;;;;;;;1.23;0.93;;;12.00;46.80;;;;;;5074834;28;20040;-74
2022/04/18 08:16:07;;;;;;;2.90;1.23;;;12.00;46.60;;;;;;5076540;28;20115;-78
2022/04/18 08:18:36;;;;;;;4.28;1.10;;;12.00;46.20;;;;;;5073902;28;20044;-77
2022/04/18 08:21:03;;;;;;;1.83;1.15;;;12.00;48.00;;;;;;5068315;28;20036;-78
2022/04/18 08:23:28;;;;;;;3.70;1.40;;;12.10;45.90;;;;;;5074077;28;20048;-77
2022/04/18 08:25:54;;;;;;;1.48;1.38;;;11.90;46.60;;;;;;5069221;28;20051;-76
2022/04/18 08:28:20;;;;;;;2.33;1.40;;;11.80;46.60;;;;;;5076654;28;20040;-74
2022/04/18 08:30:45;;;;;;;5.50;2.10;;;11.70;47.10;;;;;;5071645;28;20032;-75
2022/04/18 08:33:11;;;;;;;0.93;0.70;;;11.70;48.30;;;;;;5072267;28;20410;-76
2022/04/18 08:35:37;;;;;;;2.63;1.02;;;11.90;47.50;;;;;;5076163;28;20038;-75
2022/04/18 08:38:02;;;;;;;2.60;1.15;;;12.20;45.60;;;;;;5076034;28;20140;-76
2022/04/18 08:40:28;;;;;;;1.67;1.00;;;12.20;46.10;;;;;;5072947;28;20098;-76
2022/04/18 08:42:57;;;;;;;5.85;5.28;;;12.30;46.70;;;;;;5076301;28;20101;-78
2022/04/18 08:45:26;;;;;;;1.95;1.15;;;12.40;46.50;;;;;;5072444;28;20033;-76
2022/04/18 08:53:28;;;;;;;3.45;0.88;;;12.40;48.30;;;;;;5074538;28;20071;-78
2022/04/18 08:55:55;;;;;;;1.58;1.23;;;12.40;46.10;;;;;;5061265;28;20032;-74
2022/04/18 08:58:22;;;;;;;1.80;1.10;;;12.30;44.70;;;;;;5066909;28;20044;-74
2022/04/18 09:00:48;;;;;;;1.63;1.02;;;12.10;43.60;;;;;;5070940;28;21225;-75
2022/04/18 09:03:14;;;;;;;2.53;1.40;;;12.00;45.60;;;;;;5068566;28;20048;-74
2022/04/18 09:05:39;;;;;;;1.95;1.20;;;12.10;45.50;;;;;;5073769;28;20044;-73
2022/04/18 09:08:07;;;;;;;2.38;1.13;;;12.20;45.30;;;;;;5067894;28;20021;-73
2022/04/18 09:10:34;;;;;;;1.95;1.15;;;12.20;43.50;;;;;;5061188;28;20048;-73
2022/04/18 09:13:11;;;;;;;1.48;1.25;;;12.20;44.80;;;;;;5070899;28;20039;-73
2022/04/18 09:15:42;;;;;;;4.15;1.65;;;12.40;43.70;;;;;;5071514;28;20148;-69
2022/04/18 09:18:10;;;;;;;13.47;10.03;;;12.40;44.50;;;;;;5072344;28;20067;-70
2022/04/18 09:20:43;;;;;;;3.38;2.92;;;12.40;43.70;;;;;;5064407;28;20040;-69
2022/04/18 09:23:29;;;;;;;25.13;22.70;;;12.50;44.20;;;;;;5065710;28;20483;-68
2022/04/18 09:26:03;;;;;;;3.33;3.00;;;12.60;44.50;;;;;;5070164;28;20040;-73
2022/04/18 09:28:30;;;;;;;2.15;1.40;;;12.60;43.60;;;;;;5055106;28;20062;-73
2022/04/18 09:31:10;;;;;;;6.93;5.10;;;12.60;42.60;;;;;;5068399;28;20036;-72
2022/04/18 09:33:46;;;;;;;11.88;8.73;;;12.70;44.50;;;;;;5059123;28;20029;-71
2022/04/18 09:36:19;;;;;;;1.20;1.10;;;12.90;46.80;;;;;;5043481;28;20060;-70
2022/04/18 09:38:52;;;;;;;3.10;0.80;;;13.20;44.30;;;;;;5073244;28;20132;-70
2022/04/18 09:41:31;;;;;;;1.00;0.85;;;13.10;41.70;;;;;;5068722;28;20044;-71
2022/04/18 09:43:58;;;;;;;0.95;0.90;;;13.00;45.20;;;;;;5068186;28;20748;-70
2022/04/18 09:46:24;;;;;;;5.45;4.07;;;13.10;42.00;;;;;;5074455;28;20161;-71
2022/04/18 09:48:51;;;;;;;0.88;0.75;;;13.00;43.40;;;;;;5054250;28;20444;-70
2022/04/18 09:51:25;;;;;;;10.95;7.93;;;12.90;41.70;;;;;;5081920;28;20040;-70
2022/04/18 09:53:53;;;;;;;2.67;1.05;;;12.80;43.30;;;;;;5073385;28;20325;-71
2022/04/18 09:56:21;;;;;;;1.20;1.10;;;12.70;42.10;;;;;;5061625;28;20051;-69
2022/04/18 09:58:47;;;;;;;1.90;0.75;;;12.60;42.30;;;;;;5067097;28;20036;-70
2022/04/18 10:01:14;;;;;;;1.92;1.33;;;12.40;42.40;;;;;;5075508;28;20052;-70
2022/04/18 10:03:41;;;;;;;9.07;6.43;;;12.30;44.00;;;;;;5072060;28;20190;-69
2022/04/18 10:06:08;;;;;;;2.60;1.92;;;12.30;43.80;;;;;;5075315;28;20159;-69
2022/04/18 10:08:35;;;;;;;11.68;7.85;;;12.30;45.90;;;;;;5060159;28;20052;-69
2022/04/18 10:11:07;;;;;;;1.67;1.25;;;12.40;46.60;;;;;;5071189;28;20024;-69
2022/04/18 10:13:35;;;;;;;2.55;1.30;;;12.60;46.10;;;;;;5072633;28;20111;-70
2022/04/18 10:16:01;;;;;;;3.40;2.30;;;12.80;44.90;;;;;;5069603;28;20053;-70
2022/04/18 10:18:28;;;;;;;1.30;0.70;;;12.80;44.50;;;;;;5069090;28;20154;-70
2022/04/18 10:20:57;;;;;;;2.92;0.90;;;12.70;45.10;;;;;;5068080;28;20114;-70
2022/04/18 10:23:48;;;;;;;0.85;0.55;;;12.90;42.50;;;;;;5073571;28;20035;-70
2022/04/18 10:26:33;;;;;;;1.23;0.80;;;12.90;42.80;;;;;;5071181;28;20055;-71
2022/04/18 10:29:45;;;;;;;30.58;20.80;;;12.90;42.60;;;;;;5073290;28;20055;-71
2022/04/18 10:32:16;;;;;;;3.53;1.10;;;12.80;43.90;;;;;;5069965;28;20044;-71
2022/04/18 10:34:45;;;;;;;1.48;0.85;;;13.00;43.90;;;;;;5073142;28;20044;-71
2022/04/18 10:37:12;;;;;;;3.88;2.17;;;13.00;42.40;;;;;;5071360;28;20131;-70
2022/04/18 10:39:39;;;;;;;4.55;4.03;;;12.80;43.70;;;;;;5077085;28;20068;-70
2022/04/18 10:42:20;;;;;;;2.83;1.55;;;12.90;45.60;;;;;;5076191;28;20816;-70
2022/04/18 10:45:01;;;;;;;1.05;0.93;;;13.00;46.40;;;;;;5073858;28;20066;-71
2022/04/18 10:47:48;;;;;;;2.95;1.98;;;13.30;46.40;;;;;;5070758;28;20048;-71
2022/04/18 10:50:20;;;;;;;2.15;1.10;;;13.40;44.50;;;;;;5070010;28;20047;-70
2022/04/18 10:53:08;;;;;;;1.27;0.90;;;13.40;41.80;;;;;;5073230;28;20048;-70
2022/04/18 10:55:35;;;;;;;1.85;1.30;;;13.00;41.30;;;;;;5072329;28;20040;-69
2022/04/18 10:58:21;;;;;;;1.58;1.00;;;13.00;42.90;;;;;;5068919;28;20048;-69
2022/04/18 11:00:52;;;;;;;12.98;9.88;;;13.00;43.60;;;;;;5067140;28;20155;-69
2022/04/18 11:03:38;;;;;;;4.55;1.27;;;13.10;41.90;;;;;;5078191;28;20149;-69
2022/04/18 11:06:09;;;;;;;32.17;24.33;;;13.20;42.50;;;;;;5076304;28;20109;-68
2022/04/18 11:08:37;;;;;;;1.83;1.38;;;13.30;42.80;;;;;;5079819;28;20036;-69
2022/04/18 11:11:16;;;;;;;2.05;1.50;;;13.50;42.30;;;;;;5076887;28;20052;-69
2022/04/18 11:13:49;;;;;;;1.40;0.80;;;13.50;43.50;;;;;;5080979;28;20047;-69
2022/04/18 11:16:23;;;;;;;0.93;0.70;;;13.70;45.10;;;;;;5080836;28;20498;-70
2022/04/18 11:19:14;;;;;;;1.60;1.40;;;13.90;40.00;;;;;;5070712;28;20547;-69
2022/04/18 11:21:56;;;;;;;1.33;0.73;;;13.70;40.20;;;;;;5080010;28;20036;-68
2022/04/18 11:24:44;;;;;;;5.20;4.15;;;13.50;43.50;;;;;;5074302;28;20061;-69
2022/04/18 11:27:12;;;;;;;4.82;2.30;;;13.30;42.80;;;;;;5079654;28;20550;-70
2022/04/18 11:29:42;;;;;;;1.83;1.52;;;13.30;42.50;;;;;;5075625;28;20068;-69
2022/04/18 11:32:09;;;;;;;8.82;6.32;;;13.20;42.40;;;;;;5079407;28;20040;-71
2022/04/18 11:34:36;;;;;;;7.45;5.18;;;13.10;43.10;;;;;;5078611;28;20047;-69
2022/04/18 11:37:08;;;;;;;1.33;1.08;;;12.90;42.80;;;;;;5077057;28;20131;-70
2022/04/18 11:39:44;;;;;;;;;;;13.00;42.60;;;;;;5072620;28;20048;-69
2022/04/18 11:42:15;;;;;;;4.57;1.20;;;13.10;43.70;;;;;;5077252;28;19991;-70
2022/04/18 11:44:41;;;;;;;7.07;2.47;;;13.10;44.40;;;;;;5074287;28;20025;-71
2022/04/18 11:47:20;;;;;;;2.30;1.30;;;13.00;47.60;;;;;;5076825;28;20086;-71
2022/04/18 11:49:46;;;;;;;1.52;0.90;;;13.10;43.10;;;;;;5077734;28;20051;-71
2022/04/18 11:52:39;;;;;;;1.90;1.50;;;12.90;43.00;;;;;;5072340;28;20489;-71
2022/04/18 11:55:17;;;;;;;2.85;1.55;;;13.00;46.30;;;;;;5072771;28;20063;-70
2022/04/18 11:57:47;;;;;;;2.20;1.45;;;13.30;45.10;;;;;;5075678;28;20053;-70
2022/04/18 12:00:14;;;;;;;1.00;0.90;;;13.30;43.70;;;;;;5080062;28;20020;-70
2022/04/18 12:08:12;;;;;;;2.10;1.67;;;13.00;44.40;;;;;;5071151;28;20182;-70
2022/04/18 12:10:42;;;;;;;1.80;1.55;;;13.10;43.90;;;;;;5081817;28;20135;-71
2022/04/18 12:13:09;;;;;;;3.60;1.60;;;13.20;45.30;;;;;;5079030;28;20044;-70
2022/04/18 12:15:36;;;;;;;1.50;0.98;;;13.20;45.50;;;;;;5074203;28;20040;-70
2022/04/18 12:18:17;;;;;;;2.38;1.10;;;13.30;44.00;;;;;;5073556;28;20123;-70
2022/04/18 12:20:50;;;;;;;2.58;1.20;;;13.30;46.00;;;;;;5075859;28;20181;-70
2022/04/18 12:23:17;;;;;;;2.25;1.55;;;13.40;47.30;;;;;;5062306;28;20151;-70
2022/04/18 12:25:47;;;;;;;1.17;1.08;;;13.50;45.90;;;;;;5080085;28;20044;-71
2022/04/18 12:28:15;;;;;;;2.88;1.05;;;13.40;44.60;;;;;;5074460;28;20044;-71
2022/04/18 12:30:41;;;;;;;5.13;1.90;;;13.30;44.60;;;;;;5074982;28;20032;-71
2022/04/18 12:33:21;;;;;;;1.92;1.50;;;13.30;44.20;;;;;;5079366;28;20028;-71
2022/04/18 12:35:58;;;;;;;2.17;1.30;;;13.20;44.60;;;;;;5079743;28;20092;-71
2022/04/18 12:38:31;;;;;;;3.10;2.60;;;13.00;44.70;;;;;;5076862;28;20044;-71
2022/04/18 12:40:58;;;;;;;1.70;1.40;;;12.80;45.90;;;;;;5061249;28;20388;-71
2022/04/18 12:43:28;;;;;;;3.55;2.42;;;12.60;48.30;;;;;;5073753;28;20037;-71
2022/04/18 12:46:09;;;;;;;2.47;1.80;;;12.10;51.30;;;;;;5080636;28;20374;-71
2022/04/18 12:48:37;;;;;;;3.83;2.42;;;11.80;54.10;;;;;;5079923;28;20028;-71
2022/04/18 12:51:08;;;;;;;3.95;2.80;;;11.50;55.00;;;;;;5072564;28;20075;-71
2022/04/18 12:53:53;;;;;;;3.20;1.42;;;11.20;54.10;;;;;;5076035;28;20032;-70
2022/04/18 12:56:23;;;;;;;1.95;1.42;;;11.30;54.60;;;;;;5078128;28;20071;-70
2022/04/18 12:59:00;;;;;;;2.70;1.80;;;11.20;54.60;;;;;;5078352;28;20047;-71
2022/04/18 13:01:35;;;;;;;1.98;1.10;;;11.30;54.40;;;;;;5075667;28;20039;-71
2022/04/18 13:04:05;;;;;;;1.80;1.08;;;11.50;53.40;;;;;;5073202;28;20202;-71
2022/04/18 13:06:34;;;;;;;6.05;1.20;;;11.70;51.70;;;;;;5080939;28;20085;-71
2022/04/18 13:09:08;;;;;;;6.68;3.80;;;11.90;50.90;;;;;;5075013;28;20052;-71
2022/04/18 13:11:45;;;;;;;2.30;1.50;;;12.00;51.40;;;;;;5079750;28;20078;-71
2022/04/18 13:14:12;;;;;;;1.40;1.10;;;12.10;51.70;;;;;;5080049;28;20078;-71
2022/04/18 13:16:39;;;;;;;6.13;4.32;;;12.10;52.50;;;;;;5073290;28;20506;-72
2022/04/18 13:19:13;;;;;;;3.15;1.50;;;12.30;51.70;;;;;;5077029;28;20587;-72
2022/04/18 13:21:40;;;;;;;4.13;1.20;;;12.10;51.00;;;;;;5078174;28;20131;-71